sensor_id;sensor_type;location;lat;lon;timestamp;P1;durP1;ratioP1;P2;durP2;ratioP2
43560;SDS011;32305;46.410;17.394;2022-07-24T00:01:41;8.10;;;7.38;;
43560;SDS011;32305;46.410;17.394;2022-07-24T00:04:08;8.38;;;7.38;;
43560;SDS011;32305;46.410;17.394;2022-07-24T00:06:35;8.25;;;7.47;;
43560;SDS011;32305;46.410;17.394;2022-07-24T00:09:03;7.65;;;6.95;;
43560;SDS011;32305;46.410;17.394;2022-07-24T00:11:32;8.52;;;7.53;;
43560;SDS011;32305;46.410;17.394;2022-07-24T00:14:00;7.55;;;6.78;;
43560;SDS011;32305;46.410;17.394;2022-07-24T00:16:27;7.55;;;6.82;;
43560;SDS011;32305;46.410;17.394;2022-07-24T00:18:55;7.10;;;6.50;;
43560;SDS011;32305;46.410;17.394;2022-07-24T00:21:22;8.15;;;7.45;;
43560;SDS011;32305;46.410;17.394;2022-07-24T00:23:49;7.93;;;7.22;;
43560;SDS011;32305;46.410;17.394;2022-07-24T00:26:17;7.40;;;6.70;;
43560;SDS011;32305;46.410;17.394;2022-07-24T00:28:44;8.80;;;8.00;;
43560;SDS011;32305;46.410;17.394;2022-07-24T00:31:11;8.13;;;7.32;;
43560;SDS011;32305;46.410;17.394;2022-07-24T00:33:38;8.00;;;7.20;;
43560;SDS011;32305;46.410;17.394;2022-07-24T00:36:05;7.93;;;7.22;;
43560;SDS011;32305;46.410;17.394;2022-07-24T00:38:33;6.95;;;6.35;;
43560;SDS011;32305;46.410;17.394;2022-07-24T00:41:00;8.20;;;7.40;;
43560;SDS011;32305;46.410;17.394;2022-07-24T00:43:27;8.20;;;7.45;;
43560;SDS011;32305;46.410;17.394;2022-07-24T00:45:54;7.45;;;6.78;;
43560;SDS011;32305;46.410;17.394;2022-07-24T00:48:22;8.02;;;7.13;;
43560;SDS011;32305;46.410;17.394;2022-07-24T00:50:50;7.82;;;7.13;;
43560;SDS011;32305;46.410;17.394;2022-07-24T00:53:18;7.95;;;7.20;;
43560;SDS011;32305;46.410;17.394;2022-07-24T00:55:45;7.65;;;6.95;;
43560;SDS011;32305;46.410;17.394;2022-07-24T00:58:12;7.63;;;6.93;;
43560;SDS011;32305;46.410;17.394;2022-07-24T01:00:39;7.82;;;7.07;;
43560;SDS011;32305;46.410;17.394;2022-07-24T01:03:06;6.93;;;6.32;;
43560;SDS011;32305;46.410;17.394;2022-07-24T01:05:34;7.10;;;6.50;;
43560;SDS011;32305;46.410;17.394;2022-07-24T01:08:01;7.78;;;7.07;;
43560;SDS011;32305;46.410;17.394;2022-07-24T01:10:28;7.57;;;6.88;;
43560;SDS011;32305;46.410;17.394;2022-07-24T01:12:56;7.82;;;7.13;;
43560;SDS011;32305;46.410;17.394;2022-07-24T01:15:23;7.68;;;6.97;;
43560;SDS011;32305;46.410;17.394;2022-07-24T01:17:51;7.03;;;6.32;;
43560;SDS011;32305;46.410;17.394;2022-07-24T01:20:18;7.75;;;7.05;;
43560;SDS011;32305;46.410;17.394;2022-07-24T01:22:45;7.60;;;6.90;;
43560;SDS011;32305;46.410;17.394;2022-07-24T01:25:12;7.40;;;6.70;;
43560;SDS011;32305;46.410;17.394;2022-07-24T01:27:39;7.60;;;6.88;;
43560;SDS011;32305;46.410;17.394;2022-07-24T01:30:07;7.60;;;6.30;;
43560;SDS011;32305;46.410;17.394;2022-07-24T01:32:35;7.30;;;6.60;;
43560;SDS011;32305;46.410;17.394;2022-07-24T01:35:02;6.80;;;6.20;;
43560;SDS011;32305;46.410;17.394;2022-07-24T01:37:30;6.90;;;6.30;;
43560;SDS011;32305;46.410;17.394;2022-07-24T01:39:57;9.23;;;6.95;;
43560;SDS011;32305;46.410;17.394;2022-07-24T01:42:24;6.30;;;5.78;;
43560;SDS011;32305;46.410;17.394;2022-07-24T01:44:52;7.00;;;6.30;;
43560;SDS011;32305;46.410;17.394;2022-07-24T01:47:19;6.68;;;6.07;;
43560;SDS011;32305;46.410;17.394;2022-07-24T01:49:46;8.70;;;6.95;;
43560;SDS011;32305;46.410;17.394;2022-07-24T01:52:13;7.60;;;6.78;;
43560;SDS011;32305;46.410;17.394;2022-07-24T01:54:40;7.32;;;6.55;;
43560;SDS011;32305;46.410;17.394;2022-07-24T01:57:08;7.43;;;6.72;;
43560;SDS011;32305;46.410;17.394;2022-07-24T01:59:35;6.50;;;5.90;;
43560;SDS011;32305;46.410;17.394;2022-07-24T02:02:02;7.20;;;6.60;;
43560;SDS011;32305;46.410;17.394;2022-07-24T02:04:29;6.63;;;6.07;;
43560;SDS011;32305;46.410;17.394;2022-07-24T02:06:56;7.38;;;6.68;;
43560;SDS011;32305;46.410;17.394;2022-07-24T02:09:24;7.13;;;6.45;;
43560;SDS011;32305;46.410;17.394;2022-07-24T02:11:51;7.20;;;6.53;;
43560;SDS011;32305;46.410;17.394;2022-07-24T02:14:19;7.13;;;6.40;;
43560;SDS011;32305;46.410;17.394;2022-07-24T02:16:46;7.00;;;6.38;;
43560;SDS011;32305;46.410;17.394;2022-07-24T02:19:14;7.10;;;6.47;;
43560;SDS011;32305;46.410;17.394;2022-07-24T02:21:41;7.05;;;6.43;;
43560;SDS011;32305;46.410;17.394;2022-07-24T02:24:08;6.70;;;6.10;;
43560;SDS011;32305;46.410;17.394;2022-07-24T02:26:35;6.93;;;6.32;;
43560;SDS011;32305;46.410;17.394;2022-07-24T02:29:03;6.57;;;6.03;;
43560;SDS011;32305;46.410;17.394;2022-07-24T02:31:30;6.65;;;6.05;;
43560;SDS011;32305;46.410;17.394;2022-07-24T02:33:57;7.05;;;6.45;;
43560;SDS011;32305;46.410;17.394;2022-07-24T02:36:25;6.68;;;6.07;;
43560;SDS011;32305;46.410;17.394;2022-07-24T02:38:52;6.50;;;6.00;;
43560;SDS011;32305;46.410;17.394;2022-07-24T02:41:19;6.60;;;6.03;;
43560;SDS011;32305;46.410;17.394;2022-07-24T02:43:46;6.78;;;6.18;;
43560;SDS011;32305;46.410;17.394;2022-07-24T02:46:13;6.32;;;5.82;;
43560;SDS011;32305;46.410;17.394;2022-07-24T02:48:41;6.65;;;6.05;;
43560;SDS011;32305;46.410;17.394;2022-07-24T02:51:08;6.63;;;6.03;;
43560;SDS011;32305;46.410;17.394;2022-07-24T02:53:36;6.03;;;5.53;;
43560;SDS011;32305;46.410;17.394;2022-07-24T02:56:04;6.80;;;6.20;;
43560;SDS011;32305;46.410;17.394;2022-07-24T02:58:31;6.70;;;6.10;;
43560;SDS011;32305;46.410;17.394;2022-07-24T03:00:59;6.05;;;5.50;;
43560;SDS011;32305;46.410;17.394;2022-07-24T03:03:26;7.07;;;6.45;;
43560;SDS011;32305;46.410;17.394;2022-07-24T03:05:53;6.60;;;6.00;;
43560;SDS011;32305;46.410;17.394;2022-07-24T03:08:21;6.75;;;6.15;;
43560;SDS011;32305;46.410;17.394;2022-07-24T03:10:48;6.72;;;6.05;;
43560;SDS011;32305;46.410;17.394;2022-07-24T03:13:15;5.93;;;5.43;;
43560;SDS011;32305;46.410;17.394;2022-07-24T03:15:42;6.15;;;5.63;;
43560;SDS011;32305;46.410;17.394;2022-07-24T03:18:09;6.22;;;5.65;;
43560;SDS011;32305;46.410;17.394;2022-07-24T03:20:47;6.47;;;5.88;;
43560;SDS011;32305;46.410;17.394;2022-07-24T03:23:14;6.80;;;6.20;;
43560;SDS011;32305;46.410;17.394;2022-07-24T03:25:41;6.45;;;5.95;;
43560;SDS011;32305;46.410;17.394;2022-07-24T03:28:08;6.68;;;6.07;;
43560;SDS011;32305;46.410;17.394;2022-07-24T03:30:36;6.35;;;5.78;;
43560;SDS011;32305;46.410;17.394;2022-07-24T03:33:03;5.93;;;5.38;;
43560;SDS011;32305;46.410;17.394;2022-07-24T03:35:30;6.10;;;5.50;;
43560;SDS011;32305;46.410;17.394;2022-07-24T03:37:57;5.78;;;5.28;;
43560;SDS011;32305;46.410;17.394;2022-07-24T03:40:25;6.47;;;5.88;;
43560;SDS011;32305;46.410;17.394;2022-07-24T03:42:52;6.05;;;5.55;;
43560;SDS011;32305;46.410;17.394;2022-07-24T03:45:19;6.47;;;5.88;;
43560;SDS011;32305;46.410;17.394;2022-07-24T03:47:46;6.47;;;5.88;;
43560;SDS011;32305;46.410;17.394;2022-07-24T03:50:14;5.88;;;5.28;;
43560;SDS011;32305;46.410;17.394;2022-07-24T03:52:47;6.25;;;5.65;;
43560;SDS011;32305;46.410;17.394;2022-07-24T03:55:16;6.05;;;5.55;;
43560;SDS011;32305;46.410;17.394;2022-07-24T03:57:43;5.95;;;5.35;;
43560;SDS011;32305;46.410;17.394;2022-07-24T04:00:11;5.85;;;5.35;;
43560;SDS011;32305;46.410;17.394;2022-07-24T04:02:39;5.60;;;5.10;;
43560;SDS011;32305;46.410;17.394;2022-07-24T04:05:07;5.75;;;5.25;;
43560;SDS011;32305;46.410;17.394;2022-07-24T04:07:35;6.00;;;5.50;;
43560;SDS011;32305;46.410;17.394;2022-07-24T04:10:03;5.82;;;5.30;;
43560;SDS011;32305;46.410;17.394;2022-07-24T04:12:32;5.63;;;5.15;;
43560;SDS011;32305;46.410;17.394;2022-07-24T04:15:00;5.53;;;5.13;;
43560;SDS011;32305;46.410;17.394;2022-07-24T04:17:27;5.10;;;4.70;;
43560;SDS011;32305;46.410;17.394;2022-07-24T04:19:55;6.18;;;5.57;;
43560;SDS011;32305;46.410;17.394;2022-07-24T04:22:22;6.00;;;5.47;;
43560;SDS011;32305;46.410;17.394;2022-07-24T04:24:50;5.57;;;5.07;;
43560;SDS011;32305;46.410;17.394;2022-07-24T04:27:17;5.57;;;5.07;;
43560;SDS011;32305;46.410;17.394;2022-07-24T04:29:44;5.32;;;4.85;;
43560;SDS011;32305;46.410;17.394;2022-07-24T04:32:11;5.82;;;5.32;;
43560;SDS011;32305;46.410;17.394;2022-07-24T04:34:38;5.70;;;5.20;;
43560;SDS011;32305;46.410;17.394;2022-07-24T04:37:05;5.20;;;4.80;;
43560;SDS011;32305;46.410;17.394;2022-07-24T04:39:32;6.10;;;5.50;;
43560;SDS011;32305;46.410;17.394;2022-07-24T04:42:00;5.75;;;5.25;;
43560;SDS011;32305;46.410;17.394;2022-07-24T04:44:27;6.00;;;5.40;;
43560;SDS011;32305;46.410;17.394;2022-07-24T04:46:54;5.38;;;4.97;;
43560;SDS011;32305;46.410;17.394;2022-07-24T04:49:21;5.90;;;5.40;;
43560;SDS011;32305;46.410;17.394;2022-07-24T04:51:48;5.97;;;5.47;;
43560;SDS011;32305;46.410;17.394;2022-07-24T04:54:16;5.13;;;4.63;;
43560;SDS011;32305;46.410;17.394;2022-07-24T04:56:44;5.97;;;5.47;;
43560;SDS011;32305;46.410;17.394;2022-07-24T04:59:11;5.20;;;4.70;;
43560;SDS011;32305;46.410;17.394;2022-07-24T05:01:38;5.60;;;5.10;;
43560;SDS011;32305;46.410;17.394;2022-07-24T05:04:05;6.45;;;5.82;;
43560;SDS011;32305;46.410;17.394;2022-07-24T05:06:32;4.82;;;4.43;;
43560;SDS011;32305;46.410;17.394;2022-07-24T05:08:59;5.50;;;5.05;;
43560;SDS011;32305;46.410;17.394;2022-07-24T05:11:28;5.55;;;5.05;;
43560;SDS011;32305;46.410;17.394;2022-07-24T05:13:55;4.63;;;4.22;;
43560;SDS011;32305;46.410;17.394;2022-07-24T05:16:22;5.43;;;5.00;;
43560;SDS011;32305;46.410;17.394;2022-07-24T05:18:49;5.60;;;5.10;;
43560;SDS011;32305;46.410;17.394;2022-07-24T05:21:16;5.07;;;4.65;;
43560;SDS011;32305;46.410;17.394;2022-07-24T05:23:44;5.15;;;4.65;;
43560;SDS011;32305;46.410;17.394;2022-07-24T05:26:11;4.90;;;4.50;;
43560;SDS011;32305;46.410;17.394;2022-07-24T05:28:38;5.32;;;4.82;;
43560;SDS011;32305;46.410;17.394;2022-07-24T05:31:06;5.25;;;4.75;;
43560;SDS011;32305;46.410;17.394;2022-07-24T05:33:35;4.93;;;4.53;;
43560;SDS011;32305;46.410;17.394;2022-07-24T05:36:02;4.85;;;4.43;;
43560;SDS011;32305;46.410;17.394;2022-07-24T05:38:29;4.22;;;3.92;;
43560;SDS011;32305;46.410;17.394;2022-07-24T05:40:57;4.55;;;4.13;;
43560;SDS011;32305;46.410;17.394;2022-07-24T05:43:24;5.78;;;4.40;;
43560;SDS011;32305;46.410;17.394;2022-07-24T05:45:51;4.50;;;4.10;;
43560;SDS011;32305;46.410;17.394;2022-07-24T05:48:20;5.18;;;4.35;;
43560;SDS011;32305;46.410;17.394;2022-07-24T05:50:47;4.50;;;4.10;;
43560;SDS011;32305;46.410;17.394;2022-07-24T05:53:14;5.00;;;4.28;;
43560;SDS011;32305;46.410;17.394;2022-07-24T05:55:41;4.50;;;4.10;;
43560;SDS011;32305;46.410;17.394;2022-07-24T05:58:09;4.22;;;3.83;;
43560;SDS011;32305;46.410;17.394;2022-07-24T06:00:36;4.28;;;3.88;;
43560;SDS011;32305;46.410;17.394;2022-07-24T06:03:03;4.28;;;3.97;;
43560;SDS011;32305;46.410;17.394;2022-07-24T06:05:30;4.55;;;3.92;;
43560;SDS011;32305;46.410;17.394;2022-07-24T06:07:57;4.60;;;4.18;;
43560;SDS011;32305;46.410;17.394;2022-07-24T06:10:24;4.45;;;4.05;;
43560;SDS011;32305;46.410;17.394;2022-07-24T06:12:52;4.72;;;4.32;;
43560;SDS011;32305;46.410;17.394;2022-07-24T06:15:19;5.38;;;3.88;;
43560;SDS011;32305;46.410;17.394;2022-07-24T06:17:47;4.15;;;3.78;;
43560;SDS011;32305;46.410;17.394;2022-07-24T06:20:14;5.07;;;4.13;;
43560;SDS011;32305;46.410;17.394;2022-07-24T06:22:43;4.60;;;4.20;;
43560;SDS011;32305;46.410;17.394;2022-07-24T06:25:14;4.18;;;3.80;;
43560;SDS011;32305;46.410;17.394;2022-07-24T06:27:43;3.90;;;3.35;;
43560;SDS011;32305;46.410;17.394;2022-07-24T06:30:17;4.77;;;3.73;;
43560;SDS011;32305;46.410;17.394;2022-07-24T06:32:46;4.35;;;3.95;;
43560;SDS011;32305;46.410;17.394;2022-07-24T06:35:14;4.00;;;3.60;;
43560;SDS011;32305;46.410;17.394;2022-07-24T06:37:41;3.42;;;3.13;;
43560;SDS011;32305;46.410;17.394;2022-07-24T06:40:13;4.53;;;3.97;;
43560;SDS011;32305;46.410;17.394;2022-07-24T06:42:42;3.90;;;3.50;;
43560;SDS011;32305;46.410;17.394;2022-07-24T06:45:10;3.78;;;3.47;;
43560;SDS011;32305;46.410;17.394;2022-07-24T06:47:38;4.50;;;4.10;;
43560;SDS011;32305;46.410;17.394;2022-07-24T06:50:06;4.47;;;3.70;;
43560;SDS011;32305;46.410;17.394;2022-07-24T06:52:34;4.00;;;3.33;;
43560;SDS011;32305;46.410;17.394;2022-07-24T06:55:01;4.05;;;3.63;;
43560;SDS011;32305;46.410;17.394;2022-07-24T06:57:28;3.55;;;3.25;;
43560;SDS011;32305;46.410;17.394;2022-07-24T06:59:55;4.00;;;3.60;;
43560;SDS011;32305;46.410;17.394;2022-07-24T07:02:23;4.50;;;4.10;;
43560;SDS011;32305;46.410;17.394;2022-07-24T07:04:50;4.60;;;3.80;;
43560;SDS011;32305;46.410;17.394;2022-07-24T07:07:17;4.85;;;4.03;;
43560;SDS011;32305;46.410;17.394;2022-07-24T07:09:44;4.07;;;3.67;;
43560;SDS011;32305;46.410;17.394;2022-07-24T07:12:11;3.97;;;3.40;;
43560;SDS011;32305;46.410;17.394;2022-07-24T07:14:39;3.40;;;3.10;;
43560;SDS011;32305;46.410;17.394;2022-07-24T07:17:06;5.65;;;3.50;;
43560;SDS011;32305;46.410;17.394;2022-07-24T07:19:33;6.07;;;3.72;;
43560;SDS011;32305;46.410;17.394;2022-07-24T07:22:00;4.20;;;3.80;;
43560;SDS011;32305;46.410;17.394;2022-07-24T07:24:27;5.28;;;4.07;;
43560;SDS011;32305;46.410;17.394;2022-07-24T07:26:54;3.92;;;3.55;;
43560;SDS011;32305;46.410;17.394;2022-07-24T07:29:21;3.97;;;3.55;;
43560;SDS011;32305;46.410;17.394;2022-07-24T07:31:55;4.03;;;3.65;;
43560;SDS011;32305;46.410;17.394;2022-07-24T07:34:22;4.18;;;3.78;;
43560;SDS011;32305;46.410;17.394;2022-07-24T07:36:50;3.45;;;3.15;;
43560;SDS011;32305;46.410;17.394;2022-07-24T07:39:17;4.32;;;3.92;;
43560;SDS011;32305;46.410;17.394;2022-07-24T07:41:44;4.35;;;3.95;;
43560;SDS011;32305;46.410;17.394;2022-07-24T07:44:11;4.10;;;3.70;;
43560;SDS011;32305;46.410;17.394;2022-07-24T07:46:38;3.97;;;3.50;;
43560;SDS011;32305;46.410;17.394;2022-07-24T07:49:06;3.85;;;3.45;;
43560;SDS011;32305;46.410;17.394;2022-07-24T07:51:34;4.57;;;4.18;;
43560;SDS011;32305;46.410;17.394;2022-07-24T07:54:05;5.35;;;4.43;;
43560;SDS011;32305;46.410;17.394;2022-07-24T07:56:33;4.43;;;4.03;;
43560;SDS011;32305;46.410;17.394;2022-07-24T07:59:00;9.20;;;4.00;;
43560;SDS011;32305;46.410;17.394;2022-07-24T08:01:27;4.45;;;4.00;;
43560;SDS011;32305;46.410;17.394;2022-07-24T08:03:54;4.15;;;3.72;;
43560;SDS011;32305;46.410;17.394;2022-07-24T08:06:22;4.43;;;3.78;;
43560;SDS011;32305;46.410;17.394;2022-07-24T08:08:51;4.10;;;3.70;;
43560;SDS011;32305;46.410;17.394;2022-07-24T08:11:18;4.22;;;3.80;;
43560;SDS011;32305;46.410;17.394;2022-07-24T08:13:45;5.00;;;4.50;;
43560;SDS011;32305;46.410;17.394;2022-07-24T08:16:13;5.45;;;4.38;;
43560;SDS011;32305;46.410;17.394;2022-07-24T08:18:40;5.85;;;4.10;;
43560;SDS011;32305;46.410;17.394;2022-07-24T08:21:07;4.22;;;3.85;;
43560;SDS011;32305;46.410;17.394;2022-07-24T08:23:34;4.55;;;4.07;;
43560;SDS011;32305;46.410;17.394;2022-07-24T08:26:02;4.55;;;4.05;;
43560;SDS011;32305;46.410;17.394;2022-07-24T08:28:29;4.63;;;4.15;;
43560;SDS011;32305;46.410;17.394;2022-07-24T08:30:56;4.72;;;4.20;;
43560;SDS011;32305;46.410;17.394;2022-07-24T08:33:23;5.35;;;4.85;;
43560;SDS011;32305;46.410;17.394;2022-07-24T08:35:50;4.82;;;4.32;;
43560;SDS011;32305;46.410;17.394;2022-07-24T08:38:17;5.13;;;4.47;;
43560;SDS011;32305;46.410;17.394;2022-07-24T08:40:45;4.28;;;3.88;;
43560;SDS011;32305;46.410;17.394;2022-07-24T08:43:13;6.07;;;4.25;;
43560;SDS011;32305;46.410;17.394;2022-07-24T08:45:41;6.85;;;4.60;;
43560;SDS011;32305;46.410;17.394;2022-07-24T08:50:39;4.97;;;4.18;;
43560;SDS011;32305;46.410;17.394;2022-07-24T08:53:07;5.28;;;4.60;;
43560;SDS011;32305;46.410;17.394;2022-07-24T08:55:35;5.53;;;4.45;;
43560;SDS011;32305;46.410;17.394;2022-07-24T08:58:02;7.57;;;4.53;;
43560;SDS011;32305;46.410;17.394;2022-07-24T09:00:32;6.15;;;4.80;;
43560;SDS011;32305;46.410;17.394;2022-07-24T09:02:59;6.07;;;5.10;;
43560;SDS011;32305;46.410;17.394;2022-07-24T09:05:26;5.63;;;4.72;;
43560;SDS011;32305;46.410;17.394;2022-07-24T09:08:07;5.03;;;4.53;;
43560;SDS011;32305;46.410;17.394;2022-07-24T09:10:38;4.60;;;4.20;;
43560;SDS011;32305;46.410;17.394;2022-07-24T09:13:15;4.68;;;4.28;;
43560;SDS011;32305;46.410;17.394;2022-07-24T09:15:46;5.78;;;5.10;;
43560;SDS011;32305;46.410;17.394;2022-07-24T09:18:27;5.60;;;4.50;;
43560;SDS011;32305;46.410;17.394;2022-07-24T09:20:57;5.38;;;4.88;;
43560;SDS011;32305;46.410;17.394;2022-07-24T09:23:37;5.95;;;5.00;;
43560;SDS011;32305;46.410;17.394;2022-07-24T09:26:05;6.95;;;5.20;;
43560;SDS011;32305;46.410;17.394;2022-07-24T09:28:49;6.50;;;5.10;;
43560;SDS011;32305;46.410;17.394;2022-07-24T09:31:20;5.35;;;4.80;;
43560;SDS011;32305;46.410;17.394;2022-07-24T09:33:49;8.68;;;5.03;;
43560;SDS011;32305;46.410;17.394;2022-07-24T09:36:17;5.13;;;4.63;;
43560;SDS011;32305;46.410;17.394;2022-07-24T09:38:46;5.90;;;4.03;;
43560;SDS011;32305;46.410;17.394;2022-07-24T09:41:19;5.95;;;5.38;;
43560;SDS011;32305;46.410;17.394;2022-07-24T09:43:55;5.95;;;5.35;;
43560;SDS011;32305;46.410;17.394;2022-07-24T09:46:25;6.72;;;5.15;;
43560;SDS011;32305;46.410;17.394;2022-07-24T09:48:55;5.82;;;5.22;;
43560;SDS011;32305;46.410;17.394;2022-07-24T09:53:53;5.90;;;5.30;;
43560;SDS011;32305;46.410;17.394;2022-07-24T09:56:23;5.85;;;5.18;;
43560;SDS011;32305;46.410;17.394;2022-07-24T09:58:52;6.88;;;5.13;;
43560;SDS011;32305;46.410;17.394;2022-07-24T10:01:22;6.18;;;5.40;;
43560;SDS011;32305;46.410;17.394;2022-07-24T10:03:52;6.18;;;5.03;;
43560;SDS011;32305;46.410;17.394;2022-07-24T10:06:21;6.78;;;5.45;;
43560;SDS011;32305;46.410;17.394;2022-07-24T10:08:53;6.35;;;5.55;;
43560;SDS011;32305;46.410;17.394;2022-07-24T10:11:21;6.90;;;5.80;;
43560;SDS011;32305;46.410;17.394;2022-07-24T10:13:50;6.55;;;5.80;;
43560;SDS011;32305;46.410;17.394;2022-07-24T10:16:28;5.95;;;5.35;;
43560;SDS011;32305;46.410;17.394;2022-07-24T10:18:58;7.13;;;5.75;;
43560;SDS011;32305;46.410;17.394;2022-07-24T10:21:36;8.07;;;5.72;;
43560;SDS011;32305;46.410;17.394;2022-07-24T10:24:10;6.93;;;5.65;;
43560;SDS011;32305;46.410;17.394;2022-07-24T10:26:49;6.13;;;5.50;;
43560;SDS011;32305;46.410;17.394;2022-07-24T10:29:19;5.95;;;5.35;;
43560;SDS011;32305;46.410;17.394;2022-07-24T10:31:52;7.07;;;5.80;;
43560;SDS011;32305;46.410;17.394;2022-07-24T10:40:20;6.75;;;5.88;;
43560;SDS011;32305;46.410;17.394;2022-07-24T10:43:10;6.95;;;5.68;;
43560;SDS011;32305;46.410;17.394;2022-07-24T10:45:41;6.55;;;5.85;;
43560;SDS011;32305;46.410;17.394;2022-07-24T10:48:24;7.70;;;6.07;;
43560;SDS011;32305;46.410;17.394;2022-07-24T10:51:00;6.18;;;5.57;;
43560;SDS011;32305;46.410;17.394;2022-07-24T10:53:43;6.20;;;5.60;;
43560;SDS011;32305;46.410;17.394;2022-07-24T10:59:15;7.57;;;6.28;;
43560;SDS011;32305;46.410;17.394;2022-07-24T11:02:24;7.97;;;6.43;;
43560;SDS011;32305;46.410;17.394;2022-07-24T11:08:24;7.85;;;6.18;;
43560;SDS011;32305;46.410;17.394;2022-07-24T11:10:58;6.22;;;5.60;;
43560;SDS011;32305;46.410;17.394;2022-07-24T11:13:38;8.02;;;6.28;;
43560;SDS011;32305;46.410;17.394;2022-07-24T11:16:18;7.43;;;6.13;;
43560;SDS011;32305;46.410;17.394;2022-07-24T11:22:01;7.60;;;6.13;;
43560;SDS011;32305;46.410;17.394;2022-07-24T11:24:30;7.68;;;6.22;;
43560;SDS011;32305;46.410;17.394;2022-07-24T11:27:04;8.88;;;6.82;;
43560;SDS011;32305;46.410;17.394;2022-07-24T11:29:38;7.15;;;5.85;;
43560;SDS011;32305;46.410;17.394;2022-07-24T11:32:07;7.78;;;6.22;;
43560;SDS011;32305;46.410;17.394;2022-07-24T11:34:50;8.77;;;6.43;;
43560;SDS011;32305;46.410;17.394;2022-07-24T11:37:18;7.28;;;6.03;;
43560;SDS011;32305;46.410;17.394;2022-07-24T11:39:46;6.95;;;5.72;;
43560;SDS011;32305;46.410;17.394;2022-07-24T11:42:16;6.63;;;5.93;;
43560;SDS011;32305;46.410;17.394;2022-07-24T11:44:44;6.68;;;5.97;;
43560;SDS011;32305;46.410;17.394;2022-07-24T11:49:46;7.53;;;6.53;;
43560;SDS011;32305;46.410;17.394;2022-07-24T11:52:23;9.30;;;6.20;;
43560;SDS011;32305;46.410;17.394;2022-07-24T11:54:53;6.70;;;6.05;;
43560;SDS011;32305;46.410;17.394;2022-07-24T11:57:22;7.70;;;6.18;;
43560;SDS011;32305;46.410;17.394;2022-07-24T12:00:13;5.97;;;5.35;;
43560;SDS011;32305;46.410;17.394;2022-07-24T12:02:43;6.82;;;5.65;;
43560;SDS011;32305;46.410;17.394;2022-07-24T12:05:12;6.40;;;5.53;;
43560;SDS011;32305;46.410;17.394;2022-07-24T12:07:39;6.45;;;5.75;;
43560;SDS011;32305;46.410;17.394;2022-07-24T12:10:07;6.78;;;6.00;;
43560;SDS011;32305;46.410;17.394;2022-07-24T12:12:35;7.05;;;6.35;;
43560;SDS011;32305;46.410;17.394;2022-07-24T12:15:09;6.00;;;5.38;;
43560;SDS011;32305;46.410;17.394;2022-07-24T12:17:54;6.35;;;5.75;;
43560;SDS011;32305;46.410;17.394;2022-07-24T12:20:29;6.95;;;5.43;;
43560;SDS011;32305;46.410;17.394;2022-07-24T12:23:06;6.47;;;5.68;;
43560;SDS011;32305;46.410;17.394;2022-07-24T12:25:35;6.72;;;6.03;;
43560;SDS011;32305;46.410;17.394;2022-07-24T12:28:06;8.23;;;5.97;;
43560;SDS011;32305;46.410;17.394;2022-07-24T12:30:36;8.10;;;5.60;;
43560;SDS011;32305;46.410;17.394;2022-07-24T12:33:06;7.00;;;5.57;;
43560;SDS011;32305;46.410;17.394;2022-07-24T12:38:27;7.85;;;5.97;;
43560;SDS011;32305;46.410;17.394;2022-07-24T12:41:07;6.57;;;5.53;;
43560;SDS011;32305;46.410;17.394;2022-07-24T12:43:47;6.57;;;5.85;;
43560;SDS011;32305;46.410;17.394;2022-07-24T12:46:21;6.38;;;5.72;;
43560;SDS011;32305;46.410;17.394;2022-07-24T12:49:00;6.78;;;6.07;;
43560;SDS011;32305;46.410;17.394;2022-07-24T12:51:45;6.80;;;5.70;;
43560;SDS011;32305;46.410;17.394;2022-07-24T12:54:22;6.10;;;5.45;;
43560;SDS011;32305;46.410;17.394;2022-07-24T12:57:02;6.32;;;5.72;;
43560;SDS011;32305;46.410;17.394;2022-07-24T12:59:43;8.00;;;6.03;;
43560;SDS011;32305;46.410;17.394;2022-07-24T13:04:43;6.28;;;5.68;;
43560;SDS011;32305;46.410;17.394;2022-07-24T13:07:13;9.15;;;6.03;;
43560;SDS011;32305;46.410;17.394;2022-07-24T13:09:41;6.15;;;5.55;;
43560;SDS011;32305;46.410;17.394;2022-07-24T13:12:09;6.07;;;5.45;;
43560;SDS011;32305;46.410;17.394;2022-07-24T13:14:37;6.85;;;5.75;;
43560;SDS011;32305;46.410;17.394;2022-07-24T13:17:06;6.68;;;5.97;;
43560;SDS011;32305;46.410;17.394;2022-07-24T13:19:37;6.32;;;5.50;;
43560;SDS011;32305;46.410;17.394;2022-07-24T13:22:05;6.40;;;5.72;;
43560;SDS011;32305;46.410;17.394;2022-07-24T13:24:32;7.57;;;6.07;;
43560;SDS011;32305;46.410;17.394;2022-07-24T13:27:00;5.57;;;4.95;;
43560;SDS011;32305;46.410;17.394;2022-07-24T13:29:27;6.05;;;5.43;;
43560;SDS011;32305;46.410;17.394;2022-07-24T13:31:55;6.40;;;5.53;;
43560;SDS011;32305;46.410;17.394;2022-07-24T13:34:22;6.18;;;5.57;;
43560;SDS011;32305;46.410;17.394;2022-07-24T13:36:52;7.18;;;6.30;;
43560;SDS011;32305;46.410;17.394;2022-07-24T13:39:20;7.30;;;6.03;;
43560;SDS011;32305;46.410;17.394;2022-07-24T13:41:47;6.85;;;6.03;;
43560;SDS011;32305;46.410;17.394;2022-07-24T13:44:15;5.82;;;5.32;;
43560;SDS011;32305;46.410;17.394;2022-07-24T13:46:42;6.00;;;5.45;;
43560;SDS011;32305;46.410;17.394;2022-07-24T13:49:09;8.30;;;5.32;;
43560;SDS011;32305;46.410;17.394;2022-07-24T13:51:36;6.65;;;5.47;;
43560;SDS011;32305;46.410;17.394;2022-07-24T13:54:04;6.45;;;5.72;;
43560;SDS011;32305;46.410;17.394;2022-07-24T13:56:33;6.38;;;5.55;;
43560;SDS011;32305;46.410;17.394;2022-07-24T13:59:00;6.13;;;5.50;;
43560;SDS011;32305;46.410;17.394;2022-07-24T14:01:29;6.45;;;5.85;;
43560;SDS011;32305;46.410;17.394;2022-07-24T14:04:00;7.38;;;5.50;;
43560;SDS011;32305;46.410;17.394;2022-07-24T14:06:50;7.13;;;5.55;;
43560;SDS011;32305;46.410;17.394;2022-07-24T14:09:18;6.78;;;6.13;;
43560;SDS011;32305;46.410;17.394;2022-07-24T14:11:45;6.22;;;5.57;;
43560;SDS011;32305;46.410;17.394;2022-07-24T14:14:13;6.80;;;5.45;;
43560;SDS011;32305;46.410;17.394;2022-07-24T14:16:40;5.68;;;5.18;;
43560;SDS011;32305;46.410;17.394;2022-07-24T14:19:07;5.70;;;5.20;;
43560;SDS011;32305;46.410;17.394;2022-07-24T14:21:34;6.53;;;5.68;;
43560;SDS011;32305;46.410;17.394;2022-07-24T14:24:03;5.97;;;5.45;;
43560;SDS011;32305;46.410;17.394;2022-07-24T14:26:36;7.10;;;6.03;;
43560;SDS011;32305;46.410;17.394;2022-07-24T14:29:04;6.43;;;5.57;;
43560;SDS011;32305;46.410;17.394;2022-07-24T14:31:31;7.00;;;5.60;;
43560;SDS011;32305;46.410;17.394;2022-07-24T14:33:58;6.38;;;5.03;;
43560;SDS011;32305;46.410;17.394;2022-07-24T14:36:25;6.28;;;5.45;;
43560;SDS011;32305;46.410;17.394;2022-07-24T14:38:52;6.03;;;5.40;;
43560;SDS011;32305;46.410;17.394;2022-07-24T14:41:20;5.63;;;5.00;;
43560;SDS011;32305;46.410;17.394;2022-07-24T14:43:47;5.93;;;5.32;;
43560;SDS011;32305;46.410;17.394;2022-07-24T14:46:14;7.03;;;5.07;;
43560;SDS011;32305;46.410;17.394;2022-07-24T14:48:43;6.57;;;5.80;;
43560;SDS011;32305;46.410;17.394;2022-07-24T14:51:10;6.25;;;5.65;;
43560;SDS011;32305;46.410;17.394;2022-07-24T14:53:37;5.88;;;5.30;;
43560;SDS011;32305;46.410;17.394;2022-07-24T14:56:04;6.60;;;5.22;;
43560;SDS011;32305;46.410;17.394;2022-07-24T14:58:31;5.65;;;5.15;;
43560;SDS011;32305;46.410;17.394;2022-07-24T15:00:59;6.72;;;5.97;;
43560;SDS011;32305;46.410;17.394;2022-07-24T15:03:26;6.00;;;5.45;;
43560;SDS011;32305;46.410;17.394;2022-07-24T15:05:53;6.35;;;5.75;;
43560;SDS011;32305;46.410;17.394;2022-07-24T15:08:20;6.85;;;6.07;;
43560;SDS011;32305;46.410;17.394;2022-07-24T15:10:47;7.25;;;5.95;;
43560;SDS011;32305;46.410;17.394;2022-07-24T15:13:15;6.05;;;5.53;;